createdAt,value
2022-10-16T00:01:07.439Z,21.04
2022-10-16T00:03:37.826Z,20.35
2022-10-16T00:06:07.342Z,20.70
2022-10-16T00:08:36.043Z,20.56
2022-10-16T00:11:06.427Z,20.78
2022-10-16T00:13:35.345Z,20.79
2022-10-16T00:16:05.538Z,21.03
2022-10-16T00:18:33.708Z,20.45
2022-10-16T00:21:04.797Z,21.05
2022-10-16T00:23:33.402Z,20.60
2022-10-16T00:26:03.522Z,20.76
2022-10-16T00:28:31.946Z,20.51
2022-10-16T00:31:00.775Z,20.52
2022-10-16T00:33:30.579Z,20.79
2022-10-16T00:36:00.117Z,20.76
2022-10-16T00:38:28.248Z,20.40
2022-10-16T00:40:56.865Z,20.39
2022-10-16T00:43:40.970Z,21.08
2022-10-16T00:46:15.654Z,20.80
2022-10-16T00:48:49.143Z,20.80
2022-10-16T00:51:17.672Z,20.24
2022-10-16T00:53:46.646Z,20.50
2022-10-16T00:56:15.134Z,20.28
2022-10-16T00:58:43.166Z,20.21
2022-10-16T01:01:11.579Z,20.31
2022-10-16T01:03:39.773Z,20.29
2022-10-16T01:06:18.492Z,21.12
2022-10-16T01:08:52.012Z,20.98
2022-10-16T01:11:25.892Z,21.09
2022-10-16T01:13:56.485Z,20.98
2022-10-16T01:16:32.032Z,21.08
2022-10-16T01:19:04.984Z,21.01
2022-10-16T01:21:38.785Z,21.06
2022-10-16T01:24:12.569Z,21.05
2022-10-16T01:26:56.834Z,21.25
2022-10-16T01:29:29.103Z,21.03
2022-10-16T01:31:59.769Z,20.82
2022-10-16T01:34:33.510Z,20.91
2022-10-16T01:37:05.184Z,20.78
2022-10-16T01:39:35.051Z,20.68
2022-10-16T01:42:07.325Z,20.76
2022-10-16T01:44:38.485Z,20.76
2022-10-16T01:47:06.677Z,21.46
2022-10-16T01:49:36.436Z,20.65
2022-10-16T01:52:08.170Z,20.74
2022-10-16T01:54:38.002Z,20.68
2022-10-16T01:57:08.492Z,20.59
2022-10-16T01:59:41.467Z,20.76
2022-10-16T02:02:12.286Z,20.66
2022-10-16T02:04:42.582Z,20.65
2022-10-16T02:07:11.176Z,20.30
2022-10-16T02:09:39.382Z,20.05
2022-10-16T02:12:12.507Z,20.65
2022-10-16T02:14:42.980Z,20.61
2022-10-16T02:17:16.717Z,20.69
2022-10-16T02:19:46.314Z,20.44
2022-10-16T02:22:18.274Z,20.57
2022-10-16T02:24:52.464Z,20.69
2022-10-16T02:27:27.706Z,20.64
2022-10-16T02:29:59.868Z,20.52
2022-10-16T02:32:32.778Z,20.50
2022-10-16T02:35:01.580Z,20.13
2022-10-16T02:37:30.534Z,20.06
2022-10-16T02:40:00.369Z,20.15
2022-10-16T02:42:35.502Z,20.33
2022-10-16T02:45:05.860Z,20.13
2022-10-16T02:47:34.232Z,19.70
2022-10-16T02:50:02.606Z,19.81
2022-10-16T02:52:30.871Z,19.61
2022-10-16T02:54:58.975Z,19.53
2022-10-16T02:57:27.505Z,19.43
2022-10-16T02:59:56.083Z,19.47
2022-10-16T03:02:25.794Z,19.89
2022-10-16T03:04:53.875Z,19.43
2022-10-16T03:07:22.440Z,19.48
2022-10-16T03:09:50.522Z,19.41
2022-10-16T03:12:19.039Z,19.52
2022-10-16T03:14:47.189Z,19.40
2022-10-16T03:17:17.949Z,19.38
2022-10-16T03:19:47.443Z,19.85
2022-10-16T03:22:15.872Z,19.26
2022-10-16T03:24:43.988Z,19.31
2022-10-16T03:27:12.541Z,19.28
2022-10-16T03:29:40.646Z,19.15
2022-10-16T03:32:09.126Z,19.09
2022-10-16T03:34:37.253Z,19.10
2022-10-16T03:37:07.058Z,19.56
2022-10-16T03:39:35.227Z,19.12
2022-10-16T03:42:03.709Z,19.17
2022-10-16T03:44:32.415Z,19.32
2022-10-16T03:47:00.883Z,19.18
2022-10-16T03:49:29.040Z,19.12
2022-10-16T03:51:57.418Z,19.15
2022-10-16T03:54:26.875Z,19.51
2022-10-16T03:56:55.328Z,19.13
2022-10-16T03:59:23.446Z,19.08
2022-10-16T04:01:51.854Z,19.15
2022-10-16T04:04:20.022Z,19.28
2022-10-16T04:06:48.504Z,19.04
2022-10-16T04:09:16.538Z,19.09
2022-10-16T04:11:46.288Z,19.63
2022-10-16T04:14:15.055Z,19.37
2022-10-16T04:16:43.288Z,19.29
2022-10-16T04:19:11.572Z,19.36
2022-10-16T04:21:39.920Z,19.52
2022-10-16T04:24:08.091Z,19.69
2022-10-16T04:26:36.400Z,19.50
2022-10-16T04:29:07.222Z,19.86
2022-10-16T04:31:35.629Z,19.60
2022-10-16T04:34:03.672Z,19.57
2022-10-16T04:36:32.096Z,19.50
2022-10-16T04:39:00.224Z,19.60
2022-10-16T04:41:28.584Z,19.63
2022-10-16T04:43:56.808Z,19.69
2022-10-16T04:46:26.646Z,20.07
2022-10-16T04:48:54.939Z,19.75
2022-10-16T04:51:23.185Z,19.53
2022-10-16T04:53:51.266Z,19.64
2022-10-16T04:56:19.511Z,19.61
2022-10-16T04:58:47.742Z,19.72
2022-10-16T05:01:16.202Z,19.70
2022-10-16T05:03:45.859Z,19.92
2022-10-16T05:06:14.129Z,19.56
2022-10-16T05:08:42.267Z,19.64
2022-10-16T05:11:10.618Z,19.56
2022-10-16T05:13:38.964Z,19.58
2022-10-16T05:16:08.086Z,19.99
2022-10-16T05:18:36.336Z,19.76
2022-10-16T05:21:06.783Z,20.01
2022-10-16T05:23:35.184Z,19.84
2022-10-16T05:26:03.435Z,19.70
2022-10-16T05:28:32.371Z,20.00
2022-10-16T05:31:00.758Z,19.90
2022-10-16T05:33:28.932Z,19.95
2022-10-16T05:35:57.215Z,20.07
2022-10-16T05:38:26.650Z,20.51
2022-10-16T05:40:55.509Z,20.23
2022-10-16T05:43:23.690Z,20.12
2022-10-16T05:45:58.754Z,21.01
2022-10-16T05:48:27.263Z,20.38
2022-10-16T05:50:59.481Z,20.97
2022-10-16T05:53:29.421Z,20.70
2022-10-16T05:55:58.320Z,20.68
2022-10-16T05:58:26.998Z,20.79
2022-10-16T06:00:56.596Z,20.91
2022-10-16T06:03:25.000Z,20.75
2022-10-16T06:05:53.466Z,20.90
2022-10-16T06:08:23.827Z,21.48
2022-10-16T06:11:04.286Z,22.29
2022-10-16T06:13:32.640Z,21.73
2022-10-16T06:16:02.683Z,22.49
2022-10-16T06:18:31.547Z,22.99
2022-10-16T06:21:00.288Z,23.55
2022-10-16T06:23:30.374Z,23.68
2022-10-16T06:26:08.423Z,24.79
2022-10-16T06:28:36.762Z,24.09
2022-10-16T06:31:08.343Z,24.60
2022-10-16T06:33:36.961Z,24.29
2022-10-16T06:36:06.195Z,24.75
2022-10-16T06:38:34.575Z,24.84
2022-10-16T06:41:02.936Z,25.54
2022-10-16T06:43:33.582Z,26.84
2022-10-16T06:46:02.373Z,27.72
2022-10-16T06:48:31.181Z,28.81
2022-10-16T06:51:00.681Z,30.23
2022-10-16T06:53:39.611Z,31.25
2022-10-16T06:56:09.927Z,31.73
2022-10-16T06:58:39.942Z,32.08
2022-10-16T07:01:09.101Z,32.78
2022-10-16T07:03:39.225Z,34.00
2022-10-16T07:06:09.399Z,34.68
2022-10-16T07:08:38.974Z,35.23
2022-10-16T07:11:08.678Z,35.77
2022-10-16T07:13:37.087Z,35.85
2022-10-16T07:16:11.676Z,37.09
2022-10-16T07:18:41.392Z,37.23
2022-10-16T07:21:10.811Z,37.85
2022-10-16T07:23:39.465Z,37.31
2022-10-16T07:26:08.581Z,35.83
2022-10-16T07:28:36.904Z,34.48
2022-10-16T07:31:05.856Z,33.34
2022-10-16T07:33:36.688Z,33.09
2022-10-16T07:36:05.591Z,32.38
2022-10-16T07:38:34.088Z,32.73
2022-10-16T07:41:03.502Z,33.72
2022-10-16T07:43:32.192Z,34.33
2022-10-16T07:46:02.603Z,34.64
2022-10-16T07:48:36.728Z,35.13
2022-10-16T07:51:06.918Z,35.69
2022-10-16T07:53:35.471Z,35.39
2022-10-16T07:56:04.991Z,34.41
2022-10-16T07:58:33.357Z,32.92
2022-10-16T08:01:05.093Z,32.09
2022-10-16T08:03:33.350Z,31.28
2022-10-16T08:06:03.514Z,31.47
2022-10-16T08:08:31.937Z,31.55
2022-10-16T08:11:00.428Z,32.49
2022-10-16T08:13:29.336Z,34.28
2022-10-16T08:15:57.631Z,35.16
2022-10-16T08:18:25.821Z,34.94
2022-10-16T08:20:57.975Z,34.82
2022-10-16T08:23:27.906Z,34.40
2022-10-16T08:25:56.631Z,33.57
2022-10-16T08:28:25.619Z,33.66
2022-10-16T08:30:53.956Z,34.35
2022-10-16T08:33:22.008Z,35.76
2022-10-16T08:35:54.621Z,37.59
2022-10-16T08:38:23.109Z,38.47
2022-10-16T08:40:53.824Z,40.22
2022-10-16T08:43:29.203Z,42.16
2022-10-16T08:46:11.572Z,41.83
2022-10-16T08:48:45.650Z,40.37
2022-10-16T08:51:21.047Z,39.90
2022-10-16T08:53:53.184Z,39.42
2022-10-16T08:56:23.343Z,38.58
2022-10-16T08:58:55.117Z,37.77
2022-10-16T09:01:31.480Z,37.80
2022-10-16T09:04:45.247Z,37.57
2022-10-16T09:07:17.523Z,36.11
2022-10-16T09:09:55.601Z,35.45
2022-10-16T09:12:30.102Z,34.65
2022-10-16T09:15:05.117Z,34.48
2022-10-16T09:17:40.402Z,34.73
2022-10-16T09:20:26.583Z,35.18
2022-10-16T09:22:58.278Z,35.29
2022-10-16T09:25:26.651Z,35.71
2022-10-16T09:27:56.664Z,36.97
2022-10-16T09:30:25.217Z,37.97
2022-10-16T09:32:55.022Z,39.18
2022-10-16T09:35:25.028Z,39.61
2022-10-16T09:37:55.991Z,39.40
2022-10-16T09:40:29.114Z,39.08
2022-10-16T09:43:03.868Z,38.56
2022-10-16T09:45:32.007Z,37.77
2022-10-16T09:48:01.426Z,37.81
2022-10-16T09:50:30.577Z,37.65
2022-10-16T09:53:07.840Z,37.37
2022-10-16T09:55:36.172Z,36.16
2022-10-16T09:58:15.475Z,36.23
2022-10-16T10:00:44.079Z,35.12
2022-10-16T10:03:13.104Z,34.69
2022-10-16T10:05:41.851Z,34.13
2022-10-16T10:08:18.018Z,34.07
2022-10-16T10:10:50.550Z,33.68
2022-10-16T10:13:22.051Z,33.34
2022-10-16T10:15:50.302Z,32.77
2022-10-16T10:18:20.973Z,32.94
2022-10-16T10:20:59.774Z,33.56
2022-10-16T10:23:29.499Z,32.80
2022-10-16T10:25:59.959Z,32.42
2022-10-16T10:28:49.475Z,32.36
2022-10-16T10:31:24.363Z,31.39
2022-10-16T10:33:56.690Z,31.28
2022-10-16T10:36:30.336Z,31.01
2022-10-16T10:39:00.682Z,30.66
2022-10-16T10:41:41.976Z,31.02
2022-10-16T10:44:17.804Z,31.01
2022-10-16T10:46:51.112Z,31.44
2022-10-16T10:49:30.842Z,31.89
2022-10-16T10:52:06.348Z,31.66
2022-10-16T10:54:41.104Z,31.30
2022-10-16T10:57:13.031Z,31.26
2022-10-16T10:59:57.165Z,31.57
2022-10-16T11:02:29.246Z,31.09
2022-10-16T11:05:17.506Z,31.22
2022-10-16T11:07:50.106Z,30.59
2022-10-16T11:10:25.978Z,30.51
2022-10-16T11:12:57.790Z,30.60
2022-10-16T11:15:31.263Z,30.68
2022-10-16T11:18:02.700Z,30.63
2022-10-16T11:20:34.372Z,31.02
2022-10-16T11:23:04.877Z,31.45
2022-10-16T11:25:34.877Z,31.56
2022-10-16T11:28:06.121Z,31.72
2022-10-16T11:30:36.691Z,32.05
2022-10-16T11:33:22.546Z,31.62
2022-10-16T11:35:54.103Z,31.56
2022-10-16T11:38:28.548Z,31.62
2022-10-16T11:41:00.458Z,31.45
2022-10-16T11:43:31.672Z,31.44
2022-10-16T11:46:06.551Z,31.74
2022-10-16T11:48:41.752Z,31.78
2022-10-16T11:51:16.343Z,31.38
2022-10-16T11:53:49.809Z,31.28
2022-10-16T11:56:20.193Z,30.70
2022-10-16T11:58:57.010Z,30.84
2022-10-16T12:01:31.380Z,30.53
2022-10-16T12:04:14.561Z,30.14
2022-10-16T12:06:45.859Z,29.62
2022-10-16T12:09:19.396Z,29.83
2022-10-16T12:11:47.709Z,28.99
2022-10-16T12:14:42.874Z,29.94
2022-10-16T12:17:30.043Z,29.56
2022-10-16T12:20:03.400Z,29.36
2022-10-16T12:22:32.569Z,29.13
2022-10-16T12:25:00.991Z,28.97
2022-10-16T12:27:31.768Z,29.56
2022-10-16T12:30:01.491Z,29.75
2022-10-16T12:32:49.865Z,30.27
2022-10-16T12:35:22.738Z,30.39
2022-10-16T12:37:51.591Z,29.96
2022-10-16T12:40:28.863Z,30.48
2022-10-16T12:42:57.270Z,29.72
2022-10-16T12:45:32.142Z,30.18
2022-10-16T12:48:03.083Z,29.96
2022-10-16T12:50:36.711Z,29.96
2022-10-16T12:53:07.023Z,29.57
2022-10-16T12:55:46.150Z,29.67
2022-10-16T12:58:40.276Z,29.57
2022-10-16T13:01:14.711Z,29.14
2022-10-16T13:04:26.431Z,29.31
2022-10-16T13:06:55.548Z,29.41
2022-10-16T13:09:39.092Z,28.98
2022-10-16T13:12:20.088Z,29.05
2022-10-16T13:15:00.652Z,29.58
2022-10-16T13:17:34.339Z,28.91
2022-10-16T13:20:11.644Z,28.95
2022-10-16T13:22:45.576Z,28.86
2022-10-16T13:25:24.772Z,29.16
2022-10-16T13:27:57.071Z,28.85
2022-10-16T13:30:30.648Z,28.55
2022-10-16T13:33:02.364Z,28.31
2022-10-16T13:35:34.917Z,28.22
2022-10-16T13:38:07.960Z,28.15
2022-10-16T13:40:36.410Z,27.49
2022-10-16T13:43:04.707Z,27.35
2022-10-16T13:45:33.117Z,27.14
2022-10-16T13:48:05.564Z,27.72
2022-10-16T13:50:35.341Z,27.48
2022-10-16T13:53:07.313Z,27.57
2022-10-16T13:55:35.878Z,27.01
2022-10-16T13:58:09.189Z,27.70
2022-10-16T14:03:09.115Z,27.03
2022-10-16T14:05:50.729Z,27.60
2022-10-16T14:08:18.938Z,26.82
2022-10-16T14:10:50.624Z,27.30
2022-10-16T14:13:22.138Z,27.18
2022-10-16T14:15:52.136Z,26.97
2022-10-16T14:18:22.987Z,27.11
2022-10-16T14:20:52.715Z,27.79
2022-10-16T14:23:23.561Z,26.97
2022-10-16T14:25:52.002Z,26.54
2022-10-16T14:28:21.260Z,26.74
2022-10-16T14:30:54.841Z,27.16
2022-10-16T14:33:25.518Z,26.98
2022-10-16T14:36:05.293Z,27.59
2022-10-16T14:38:34.055Z,27.17
2022-10-16T14:41:02.772Z,27.22
2022-10-16T14:43:35.098Z,27.62
2022-10-16T14:46:05.066Z,27.37
2022-10-16T14:48:33.525Z,27.13
2022-10-16T14:51:03.271Z,27.33
2022-10-16T14:53:31.830Z,26.95
2022-10-16T14:56:00.309Z,26.68
2022-10-16T14:58:30.245Z,26.61
2022-10-16T15:00:58.779Z,26.55
2022-10-16T15:03:27.023Z,26.59
2022-10-16T15:05:55.540Z,26.55
2022-10-16T15:08:25.150Z,26.82
2022-10-16T15:10:53.947Z,26.47
2022-10-16T15:13:22.125Z,26.37
2022-10-16T15:15:50.951Z,26.27
2022-10-16T15:18:21.519Z,26.30
2022-10-16T15:20:51.905Z,26.55
2022-10-16T15:25:55.733Z,26.59
2022-10-16T15:28:25.355Z,26.27
2022-10-16T15:30:55.117Z,26.10
2022-10-16T15:33:24.869Z,26.14
2022-10-16T15:35:54.255Z,26.10
2022-10-16T15:38:23.914Z,26.07
2022-10-16T15:40:52.563Z,25.64
2022-10-16T15:43:22.351Z,25.96
2022-10-16T15:46:01.405Z,26.19
2022-10-16T15:48:29.962Z,25.32
2022-10-16T15:50:58.338Z,25.25
2022-10-16T15:53:26.672Z,25.15
2022-10-16T15:55:55.209Z,25.15
2022-10-16T15:58:25.966Z,25.40
2022-10-16T16:00:58.133Z,25.53
2022-10-16T16:03:26.474Z,24.98
2022-10-16T16:05:55.018Z,24.87
2022-10-16T16:08:23.326Z,24.76
2022-10-16T16:11:00.937Z,25.41
2022-10-16T16:13:30.786Z,25.13
2022-10-16T16:15:59.130Z,24.62
2022-10-16T16:18:27.326Z,24.61
2022-10-16T16:20:55.832Z,24.56
2022-10-16T16:23:27.038Z,24.61
2022-10-16T16:26:07.050Z,25.33
2022-10-16T16:28:37.009Z,24.87
2022-10-16T16:31:05.869Z,24.57
2022-10-16T16:33:34.679Z,24.56
2022-10-16T16:36:08.294Z,24.70
2022-10-16T16:38:38.731Z,24.27
2022-10-16T16:41:14.001Z,25.00
2022-10-16T16:43:43.967Z,24.73
2022-10-16T16:46:13.048Z,24.47
2022-10-16T16:48:41.944Z,24.33
2022-10-16T16:51:16.187Z,24.43
2022-10-16T16:53:44.761Z,24.18
2022-10-16T16:56:13.123Z,23.99
2022-10-16T16:58:41.417Z,23.92
2022-10-16T17:01:20.993Z,24.32
2022-10-16T17:03:53.365Z,24.13
2022-10-16T17:06:23.141Z,24.07
2022-10-16T17:08:51.923Z,23.96
2022-10-16T17:11:21.989Z,24.04
2022-10-16T17:13:53.981Z,23.87
2022-10-16T17:16:29.432Z,24.17
2022-10-16T17:18:57.847Z,23.73
2022-10-16T17:21:27.044Z,23.62
2022-10-16T17:23:55.520Z,23.56
2022-10-16T17:26:23.886Z,23.56
2022-10-16T17:28:54.041Z,23.91
2022-10-16T17:31:23.904Z,23.73
2022-10-16T17:33:53.608Z,23.72
2022-10-16T17:36:22.887Z,23.42
2022-10-16T17:38:51.670Z,23.30
2022-10-16T17:41:21.937Z,23.56
2022-10-16T17:43:51.477Z,23.55
2022-10-16T17:46:21.418Z,23.62
2022-10-16T17:48:51.671Z,23.60
2022-10-16T17:51:24.561Z,23.70
2022-10-16T17:53:53.963Z,23.40
2022-10-16T17:56:23.112Z,23.25
2022-10-16T17:58:52.051Z,23.16
2022-10-16T18:01:22.558Z,23.38
2022-10-16T18:03:52.339Z,23.24
2022-10-16T18:06:23.419Z,23.38
2022-10-16T18:08:52.126Z,23.00
2022-10-16T18:11:20.810Z,22.93
2022-10-16T18:13:49.078Z,22.84
2022-10-16T18:16:17.463Z,22.79
2022-10-16T18:18:45.982Z,22.80
2022-10-16T18:21:15.949Z,22.96
2022-10-16T18:23:50.913Z,23.11
2022-10-16T18:26:21.237Z,22.74
2022-10-16T18:28:51.163Z,22.63
2022-10-16T18:31:20.021Z,22.71
2022-10-16T18:33:50.764Z,22.59
2022-10-16T18:36:20.780Z,22.98
2022-10-16T18:38:50.928Z,23.00
2022-10-16T18:41:19.836Z,22.66
2022-10-16T18:43:47.970Z,22.36
2022-10-16T18:46:17.912Z,22.64
2022-10-16T18:48:47.055Z,22.45
2022-10-16T18:51:18.719Z,22.65
2022-10-16T18:53:50.356Z,22.70
2022-10-16T18:56:21.529Z,22.74
2022-10-16T18:58:50.103Z,22.49
2022-10-16T19:01:21.712Z,22.65
2022-10-16T19:03:50.627Z,22.45
2022-10-16T19:06:19.121Z,22.23
2022-10-16T19:08:47.438Z,22.12
2022-10-16T19:11:17.829Z,22.34
2022-10-16T19:13:48.836Z,22.50
2022-10-16T19:16:21.037Z,22.37
2022-10-16T19:18:50.400Z,22.38
2022-10-16T19:21:18.966Z,22.15
2022-10-16T19:23:48.350Z,22.12
2022-10-16T19:26:18.271Z,22.35
2022-10-16T19:28:48.237Z,22.34
2022-10-16T19:31:18.521Z,22.18
2022-10-16T19:33:47.411Z,22.05
2022-10-16T19:36:17.360Z,22.31
2022-10-16T19:38:46.971Z,22.20
2022-10-16T19:41:17.032Z,22.29
2022-10-16T19:43:45.781Z,22.01
2022-10-16T19:46:17.465Z,22.43
2022-10-16T19:48:46.312Z,22.10
2022-10-16T19:51:17.135Z,22.24
2022-10-16T19:53:45.602Z,21.91
2022-10-16T19:56:14.665Z,21.97
2022-10-16T19:58:43.003Z,21.80
2022-10-16T20:01:11.714Z,21.70
2022-10-16T20:03:41.580Z,22.08
2022-10-16T20:06:10.661Z,21.93
2022-10-16T20:08:40.069Z,22.00
2022-10-16T20:11:12.309Z,22.25
2022-10-16T20:13:41.605Z,21.72
2022-10-16T20:16:12.145Z,21.89
2022-10-16T20:18:42.098Z,22.16
2022-10-16T20:21:11.934Z,22.05
2022-10-16T20:23:40.302Z,21.73
2022-10-16T20:26:11.593Z,21.76
2022-10-16T20:28:40.245Z,22.98
2022-10-16T20:31:11.246Z,22.01
2022-10-16T20:33:39.630Z,21.72
2022-10-16T20:36:12.202Z,22.13
2022-10-16T20:38:40.933Z,21.54
2022-10-16T20:41:10.219Z,21.77
2022-10-16T20:46:09.948Z,22.63
2022-10-16T20:48:41.231Z,21.70
2022-10-16T20:51:15.383Z,22.10
2022-10-16T20:53:44.030Z,21.51
2022-10-16T20:56:12.808Z,21.31
2022-10-16T20:58:42.108Z,21.44
2022-10-16T21:01:12.659Z,21.80
2022-10-16T21:03:41.181Z,21.49
2022-10-16T21:06:11.396Z,21.85
2022-10-16T21:08:42.914Z,21.89
2022-10-16T21:11:13.031Z,21.65
2022-10-16T21:13:41.461Z,21.35
2022-10-16T21:16:10.540Z,21.34
2022-10-16T21:18:44.091Z,21.31
2022-10-16T21:21:20.817Z,21.68
2022-10-16T21:23:50.838Z,21.47
2022-10-16T21:26:23.396Z,21.27
2022-10-16T21:28:51.846Z,20.95
2022-10-16T21:31:21.521Z,21.27
2022-10-16T21:33:50.135Z,20.98
2022-10-16T21:36:19.891Z,21.12
2022-10-16T21:38:48.657Z,20.82
2022-10-16T21:41:20.323Z,21.35
2022-10-16T21:43:48.942Z,20.82
2022-10-16T21:46:18.652Z,21.16
2022-10-16T21:48:47.252Z,20.70
2022-10-16T21:51:16.455Z,20.85
2022-10-16T21:53:44.612Z,20.61
2022-10-16T21:56:18.957Z,21.22
2022-10-16T21:58:47.388Z,20.75
2022-10-16T22:01:17.630Z,20.92
2022-10-16T22:03:46.791Z,20.76
2022-10-16T22:06:16.656Z,20.91
2022-10-16T22:08:46.353Z,20.75
2022-10-16T22:11:18.481Z,20.99
2022-10-16T22:13:54.198Z,21.02
2022-10-16T22:16:26.553Z,20.79
2022-10-16T22:18:55.633Z,20.69
2022-10-16T22:21:24.508Z,20.73
2022-10-16T22:23:52.896Z,20.63
2022-10-16T22:26:21.272Z,20.66
2022-10-16T22:28:50.908Z,21.00
2022-10-16T22:31:21.248Z,20.78
2022-10-16T22:33:49.550Z,20.63
2022-10-16T22:36:17.802Z,20.46
2022-10-16T22:38:46.257Z,20.44
2022-10-16T22:41:15.991Z,20.83
2022-10-16T22:43:45.718Z,20.78
2022-10-16T22:46:17.139Z,20.94
2022-10-16T22:48:46.036Z,20.52
2022-10-16T22:51:16.909Z,20.51
2022-10-16T22:53:46.433Z,20.53
2022-10-16T22:56:15.668Z,20.39
2022-10-16T22:58:44.033Z,20.06
2022-10-16T23:01:18.661Z,20.53
2022-10-16T23:03:47.020Z,20.18
2022-10-16T23:06:15.776Z,20.39
2022-10-16T23:08:44.165Z,20.20
2022-10-16T23:11:13.967Z,20.56
2022-10-16T23:13:45.643Z,20.37
2022-10-16T23:16:16.993Z,20.57
2022-10-16T23:18:45.975Z,20.25
2022-10-16T23:21:15.909Z,20.35
2022-10-16T23:23:44.408Z,20.07
2022-10-16T23:26:14.353Z,20.23
2022-10-16T23:28:42.772Z,19.92
2022-10-16T23:31:11.440Z,19.83
2022-10-16T23:33:41.274Z,20.24
2022-10-16T23:36:11.450Z,20.29
2022-10-16T23:38:39.796Z,20.00
2022-10-16T23:41:08.324Z,20.13
2022-10-16T23:43:37.035Z,20.16
2022-10-16T23:46:06.187Z,20.29
2022-10-16T23:48:34.399Z,20.07
2022-10-16T23:51:04.148Z,20.36
2022-10-16T23:53:32.287Z,19.95
2022-10-16T23:56:00.749Z,20.01
2022-10-16T23:58:28.808Z,19.96
